Time;durP1;ratioP1;P1;durP2;ratioP2;P2;SDS_P1;SDS_P2;PMS_P1;PMS_P2;Temp;Humidity;BMP_temperature;BMP_pressure;BME280_temperature;BME280_humidity;BME280_pressure;Samples;Min_cycle;Max_cycle;Signal;HPM_P1;HPM_P2
2023/03/30 00:02:07;;;;;;;9.07;2.67;;;;;;;;;;5043079;28;20179;-80
2023/03/30 00:04:33;;;;;;;12.03;3.27;;;;;;;;;;5065664;28;20187;-80
2023/03/30 00:06:59;;;;;;;8.13;3.20;;;;;;;;;;5041426;28;20177;-81
2023/03/30 00:09:31;;;;;;;6.47;3.23;;;;;;;;;;5074689;28;20291;-81
2023/03/30 00:12:01;;;;;;;12.43;3.83;;;;;;;;;;5074535;28;20179;-81
2023/03/30 00:14:29;;;;;;;8.93;3.37;;;;;;;;;;5078754;28;20236;-81
2023/03/30 00:16:55;;;;;;;6.37;2.47;;;;;;;;;;5050842;28;20185;-81
2023/03/30 00:19:21;;;;;;;9.47;2.60;;;;;;;;;;5076235;28;20187;-81
2023/03/30 00:21:47;;;;;;;9.17;2.83;;;;;;;;;;5063812;28;20175;-80
2023/03/30 00:24:12;;;;;;;8.30;3.50;;;;;;;;;;5043885;28;20358;-81
2023/03/30 00:26:37;;;;;;;12.60;3.73;;;;;;;;;;5058784;28;20222;-80
2023/03/30 00:29:03;;;;;;;11.43;3.27;;;;;;;;;;5045429;28;20196;-80
2023/03/30 00:31:28;;;;;;;11.53;3.60;;;;;;;;;;5044344;28;20164;-80
2023/03/30 00:33:53;;;;;;;6.20;2.73;;;;;;;;;;5066768;28;20256;-80
2023/03/30 00:36:18;;;;;;;8.03;2.60;;;;;;;;;;5075684;28;20220;-80
2023/03/30 00:38:44;;;;;;;9.50;3.30;;;;;;;;;;5062992;28;20194;-80
2023/03/30 00:41:09;;;;;;;9.10;3.10;;;;;;;;;;5073283;28;20187;-80
2023/03/30 00:43:53;;;;;;;17.13;4.13;;;;;;;;;;5059276;28;20228;-80
2023/03/30 00:46:18;;;;;;;9.90;3.70;;;;;;;;;;5062814;28;20183;-80
2023/03/30 00:48:44;;;;;;;7.67;2.43;;;;;;;;;;5067693;28;20318;-80
2023/03/30 00:51:10;;;;;;;13.60;4.13;;;;;;;;;;5075886;28;20195;-80
2023/03/30 00:53:49;;;;;;;7.67;2.73;;;;;;;;;;5058584;28;20171;-80
2023/03/30 00:56:16;;;;;;;8.57;3.67;;;;;;;;;;5068752;28;20186;-80
2023/03/30 00:58:42;;;;;;;10.00;3.83;;;;;;;;;;5066161;28;20270;-80
2023/03/30 01:01:09;;;;;;;11.57;3.73;;;;;;;;;;5049196;28;20173;-81
2023/03/30 01:03:42;;;;;;;8.63;3.50;;;;;;;;;;5061692;28;20429;-81
2023/03/30 01:06:08;;;;;;;8.43;3.40;;;;;;;;;;5042932;28;20323;-80
2023/03/30 01:08:35;;;;;;;10.43;3.50;;;;;;;;;;5050966;28;20231;-80
2023/03/30 01:11:02;;;;;;;12.83;3.50;;;;;;;;;;5054823;28;20198;-80
2023/03/30 01:13:27;;;;;;;11.07;3.93;;;;;;;;;;5049212;28;20174;-80
2023/03/30 01:16:12;;;;;;;11.20;2.60;;;;;;;;;;5039914;28;20171;-80
2023/03/30 01:18:43;;;;;;;9.03;3.20;;;;;;;;;;5075786;28;20179;-80
2023/03/30 01:21:28;;;;;;;7.47;3.47;;;;;;;;;;5072626;28;20207;-80
2023/03/30 01:23:54;;;;;;;13.50;3.73;;;;;;;;;;5043738;28;20185;-80
2023/03/30 01:26:19;;;;;;;9.07;2.93;;;;;;;;;;5079117;28;20195;-80
2023/03/30 01:29:11;;;;;;;8.33;2.93;;;;;;;;;;5079968;28;20205;-80
2023/03/30 01:31:39;;;;;;;11.73;3.43;;;;;;;;;;5041176;28;20217;-80
2023/03/30 01:34:15;;;;;;;10.17;3.20;;;;;;;;;;5074083;28;20209;-80
2023/03/30 01:36:59;;;;;;;8.50;2.87;;;;;;;;;;5043490;28;20315;-80
2023/03/30 01:39:46;;;;;;;14.53;3.60;;;;;;;;;;5077610;28;20174;-80
2023/03/30 01:42:14;;;;;;;12.27;3.83;;;;;;;;;;5061795;28;20213;-80
2023/03/30 01:44:49;;;;;;;9.33;3.03;;;;;;;;;;5069282;28;20178;-80
2023/03/30 01:47:23;;;;;;;7.30;2.97;;;;;;;;;;5042841;28;20214;-80
2023/03/30 01:49:56;;;;;;;10.27;3.60;;;;;;;;;;5072776;28;20221;-80
2023/03/30 01:52:27;;;;;;;11.27;3.73;;;;;;;;;;5045466;28;20215;-80
2023/03/30 01:54:59;;;;;;;7.63;3.43;;;;;;;;;;5074027;28;20212;-80
2023/03/30 01:57:28;;;;;;;10.07;3.87;;;;;;;;;;5042954;28;20182;-80
2023/03/30 01:59:55;;;;;;;12.00;3.90;;;;;;;;;;5051824;28;20250;-81
2023/03/30 02:02:21;;;;;;;11.07;3.43;;;;;;;;;;5046806;28;20188;-80
2023/03/30 02:04:47;;;;;;;11.50;3.20;;;;;;;;;;5075118;28;20264;-80
2023/03/30 02:07:18;;;;;;;10.57;3.67;;;;;;;;;;5046491;28;20287;-80
2023/03/30 02:09:44;;;;;;;9.70;3.67;;;;;;;;;;5042848;28;20230;-80
2023/03/30 02:12:10;;;;;;;11.00;3.10;;;;;;;;;;5072944;28;20179;-80
2023/03/30 02:14:37;;;;;;;16.30;4.20;;;;;;;;;;5079185;28;20182;-80
2023/03/30 02:17:05;;;;;;;9.67;3.27;;;;;;;;;;5076089;28;20169;-80
2023/03/30 02:19:32;;;;;;;11.80;3.67;;;;;;;;;;5049878;28;20174;-80
2023/03/30 02:21:59;;;;;;;13.53;3.80;;;;;;;;;;5058285;28;20190;-80
2023/03/30 02:24:26;;;;;;;8.83;3.50;;;;;;;;;;5072850;28;20251;-80
2023/03/30 02:26:51;;;;;;;11.40;3.03;;;;;;;;;;5063654;28;20187;-80
2023/03/30 02:29:17;;;;;;;16.03;3.30;;;;;;;;;;5080858;28;20255;-80
2023/03/30 02:31:44;;;;;;;10.13;4.03;;;;;;;;;;5040466;28;20189;-80
2023/03/30 02:34:12;;;;;;;11.43;3.53;;;;;;;;;;5058751;28;20182;-81
2023/03/30 02:36:37;;;;;;;10.40;3.80;;;;;;;;;;5035857;28;20254;-80
2023/03/30 02:39:04;;;;;;;12.43;4.37;;;;;;;;;;5070487;28;20284;-80
2023/03/30 02:41:32;;;;;;;12.60;4.00;;;;;;;;;;5068926;28;20185;-80
2023/03/30 02:44:15;;;;;;;9.93;3.97;;;;;;;;;;5049517;28;20193;-80
2023/03/30 02:46:44;;;;;;;11.40;3.93;;;;;;;;;;5075859;28;20167;-80
2023/03/30 02:49:35;;;;;;;12.37;3.50;;;;;;;;;;5069879;28;20206;-80
2023/03/30 02:52:00;;;;;;;14.63;3.40;;;;;;;;;;5046283;28;20217;-80
2023/03/30 02:54:51;;;;;;;15.50;4.20;;;;;;;;;;5041784;28;20218;-80
2023/03/30 02:57:36;;;;;;;13.10;4.07;;;;;;;;;;5046256;28;20240;-80
2023/03/30 03:00:16;;;;;;;15.93;3.60;;;;;;;;;;5061542;28;20182;-80
2023/03/30 03:02:44;;;;;;;12.93;3.27;;;;;;;;;;5038853;28;20174;-80
2023/03/30 03:05:11;;;;;;;11.63;4.83;;;;;;;;;;5048594;28;20183;-80
2023/03/30 03:07:37;;;;;;;11.43;4.33;;;;;;;;;;5064634;28;20211;-80
2023/03/30 03:10:03;;;;;;;9.33;3.60;;;;;;;;;;5074341;28;20248;-80
2023/03/30 03:12:31;;;;;;;10.03;3.50;;;;;;;;;;5048850;28;20183;-80
2023/03/30 03:14:57;;;;;;;8.50;4.07;;;;;;;;;;5078968;28;20174;-80
2023/03/30 03:17:22;;;;;;;13.03;4.43;;;;;;;;;;5053955;28;20235;-79
2023/03/30 03:19:48;;;;;;;12.30;4.30;;;;;;;;;;5069613;28;20186;-80
2023/03/30 03:22:14;;;;;;;9.17;3.60;;;;;;;;;;5041949;28;20179;-79
2023/03/30 03:24:39;;;;;;;13.13;3.33;;;;;;;;;;5048178;28;20189;-79
2023/03/30 03:27:05;;;;;;;16.57;4.83;;;;;;;;;;5047797;28;20243;-79
2023/03/30 03:29:31;;;;;;;8.00;4.43;;;;;;;;;;5047082;28;20324;-79
2023/03/30 03:31:56;;;;;;;9.27;3.40;;;;;;;;;;5047163;28;20187;-80
2023/03/30 03:34:24;;;;;;;11.40;3.60;;;;;;;;;;5050546;28;20177;-80
2023/03/30 03:36:52;;;;;;;13.57;4.07;;;;;;;;;;5047473;28;20174;-80
2023/03/30 03:39:17;;;;;;;10.17;3.33;;;;;;;;;;5054943;28;20189;-79
2023/03/30 03:41:42;;;;;;;11.80;4.53;;;;;;;;;;5050400;28;20186;-80
2023/03/30 03:44:07;;;;;;;9.57;4.17;;;;;;;;;;5041536;28;20177;-80
2023/03/30 03:46:33;;;;;;;9.40;3.50;;;;;;;;;;5048849;28;20183;-79
2023/03/30 03:48:58;;;;;;;7.80;3.70;;;;;;;;;;5076739;28;20250;-79
2023/03/30 03:51:23;;;;;;;10.73;3.40;;;;;;;;;;5046198;28;20187;-79
2023/03/30 03:53:48;;;;;;;9.80;3.73;;;;;;;;;;5076567;28;20185;-79
2023/03/30 03:56:14;;;;;;;7.43;3.57;;;;;;;;;;5057929;28;20216;-79
2023/03/30 03:58:39;;;;;;;9.73;3.70;;;;;;;;;;5060597;28;20271;-80
2023/03/30 04:01:05;;;;;;;11.50;3.80;;;;;;;;;;5047991;28;20205;-79
2023/03/30 04:03:30;;;;;;;19.33;5.03;;;;;;;;;;5040373;28;20268;-80
2023/03/30 04:06:01;;;;;;;10.00;3.80;;;;;;;;;;5039694;28;20173;-80
2023/03/30 04:08:27;;;;;;;9.17;3.90;;;;;;;;;;5049269;28;20213;-79
2023/03/30 04:10:52;;;;;;;13.67;4.30;;;;;;;;;;5071125;28;20186;-79
2023/03/30 04:13:18;;;;;;;9.03;3.50;;;;;;;;;;5042553;28;20186;-79
2023/03/30 04:15:43;;;;;;;15.50;4.17;;;;;;;;;;5048342;28;20243;-79
2023/03/30 04:18:08;;;;;;;9.43;3.60;;;;;;;;;;5040656;28;20182;-79
2023/03/30 04:20:33;;;;;;;29.53;15.50;;;;;;;;;;5078973;28;20182;-79
2023/03/30 04:23:00;;;;;;;15.93;6.10;;;;;;;;;;5040954;28;20198;-79
2023/03/30 04:25:26;;;;;;;20.13;7.47;;;;;;;;;;5046364;28;20187;-80
2023/03/30 04:27:52;;;;;;;13.50;4.73;;;;;;;;;;5060489;28;20188;-80
2023/03/30 04:30:18;;;;;;;11.73;3.67;;;;;;;;;;5075156;28;20208;-80
2023/03/30 04:32:45;;;;;;;15.47;4.37;;;;;;;;;;5042910;28;20170;-79
2023/03/30 04:35:11;;;;;;;17.57;5.10;;;;;;;;;;5076696;28;20189;-79
2023/03/30 04:37:37;;;;;;;16.27;4.63;;;;;;;;;;5064074;28;20182;-80
2023/03/30 04:40:06;;;;;;;10.80;4.17;;;;;;;;;;5050228;28;20178;-80
2023/03/30 04:42:36;;;;;;;16.00;4.17;;;;;;;;;;5047296;28;20202;-80
2023/03/30 04:45:02;;;;;;;13.07;4.83;;;;;;;;;;5075221;28;20186;-80
2023/03/30 04:47:28;;;;;;;14.80;5.30;;;;;;;;;;5072291;28;20236;-80
2023/03/30 04:49:53;;;;;;;10.97;3.90;;;;;;;;;;5074757;28;20221;-80
2023/03/30 04:52:19;;;;;;;10.87;4.57;;;;;;;;;;5041383;28;20182;-79
2023/03/30 04:54:44;;;;;;;16.50;5.37;;;;;;;;;;5039819;28;20200;-80
2023/03/30 04:57:10;;;;;;;13.13;4.53;;;;;;;;;;5043258;28;20175;-79
2023/03/30 04:59:35;;;;;;;8.90;3.53;;;;;;;;;;5046768;28;20214;-79
2023/03/30 05:02:02;;;;;;;8.13;4.20;;;;;;;;;;5074690;28;20184;-80
2023/03/30 05:04:28;;;;;;;8.13;3.83;;;;;;;;;;5048423;28;20174;-79
2023/03/30 05:06:54;;;;;;;12.33;6.17;;;;;;;;;;5049277;28;20263;-79
2023/03/30 05:09:20;;;;;;;14.83;4.10;;;;;;;;;;5056109;28;20311;-79
2023/03/30 05:11:45;;;;;;;11.33;4.50;;;;;;;;;;5045144;28;20205;-79
2023/03/30 05:14:10;;;;;;;10.33;3.40;;;;;;;;;;5060831;28;20226;-80
2023/03/30 05:16:36;;;;;;;13.27;3.93;;;;;;;;;;5065284;28;20203;-80
2023/03/30 05:19:01;;;;;;;11.73;3.83;;;;;;;;;;5058923;28;20214;-79
2023/03/30 05:21:26;;;;;;;12.53;4.30;;;;;;;;;;5054447;28;20190;-80
2023/03/30 05:23:51;;;;;;;8.03;3.63;;;;;;;;;;5068041;28;20252;-80
2023/03/30 05:26:17;;;;;;;10.53;4.90;;;;;;;;;;5046504;28;20187;-80
2023/03/30 05:28:42;;;;;;;8.30;3.90;;;;;;;;;;5073691;28;20282;-79
2023/03/30 05:31:07;;;;;;;13.23;3.87;;;;;;;;;;5045849;28;20185;-80
2023/03/30 05:33:33;;;;;;;17.90;4.53;;;;;;;;;;5076363;28;20185;-80
2023/03/30 05:35:58;;;;;;;13.70;4.10;;;;;;;;;;5072152;28;20184;-80
2023/03/30 05:38:23;;;;;;;10.40;3.80;;;;;;;;;;5075678;28;20178;-80
2023/03/30 05:40:52;;;;;;;14.67;5.20;;;;;;;;;;5076717;28;20208;-79
2023/03/30 05:43:17;;;;;;;9.90;3.70;;;;;;;;;;5071010;28;20198;-79
2023/03/30 05:45:42;;;;;;;9.37;3.83;;;;;;;;;;5079710;28;20180;-80
2023/03/30 05:48:08;;;;;;;13.70;4.67;;;;;;;;;;5081077;28;20248;-79
2023/03/30 05:50:33;;;;;;;10.93;4.13;;;;;;;;;;5046070;28;20177;-79
2023/03/30 05:52:59;;;;;;;17.40;3.73;;;;;;;;;;5051053;28;20239;-80
2023/03/30 05:55:24;;;;;;;17.77;4.00;;;;;;;;;;5043519;28;20276;-80
2023/03/30 05:57:50;;;;;;;13.40;4.83;;;;;;;;;;5050421;28;20178;-80
2023/03/30 06:00:15;;;;;;;10.83;4.63;;;;;;;;;;5045738;28;20190;-79
2023/03/30 06:02:40;;;;;;;15.70;4.73;;;;;;;;;;5068239;28;20178;-80
2023/03/30 06:05:07;;;;;;;12.07;4.87;;;;;;;;;;5058729;28;20250;-80
2023/03/30 06:07:32;;;;;;;17.40;8.63;;;;;;;;;;5064262;28;20221;-80
2023/03/30 06:09:58;;;;;;;11.90;6.60;;;;;;;;;;5058877;28;20224;-80
2023/03/30 06:12:24;;;;;;;13.37;5.20;;;;;;;;;;5055442;28;20267;-80
2023/03/30 06:14:49;;;;;;;10.90;3.53;;;;;;;;;;5073434;28;20284;-79
2023/03/30 06:17:15;;;;;;;8.97;4.20;;;;;;;;;;5039235;28;20178;-79
2023/03/30 06:19:40;;;;;;;9.40;4.03;;;;;;;;;;5067490;28;20178;-80
2023/03/30 06:22:05;;;;;;;13.37;5.13;;;;;;;;;;5042857;28;20185;-79
2023/03/30 06:24:31;;;;;;;12.13;4.17;;;;;;;;;;5048516;28;20183;-79
2023/03/30 06:26:56;;;;;;;11.97;4.23;;;;;;;;;;5054747;28;20189;-79
2023/03/30 06:29:22;;;;;;;11.47;3.90;;;;;;;;;;5051687;28;20212;-79
2023/03/30 06:31:47;;;;;;;7.67;4.50;;;;;;;;;;5039304;28;20212;-79
2023/03/30 06:34:12;;;;;;;11.10;4.93;;;;;;;;;;5059534;28;20288;-79
2023/03/30 06:36:37;;;;;;;10.13;3.53;;;;;;;;;;5047112;28;20178;-79
2023/03/30 06:39:04;;;;;;;9.97;4.60;;;;;;;;;;5075220;28;20294;-79
2023/03/30 06:41:29;;;;;;;10.67;4.10;;;;;;;;;;5042471;28;20190;-79
2023/03/30 06:43:54;;;;;;;11.23;4.13;;;;;;;;;;5078415;28;20302;-76
2023/03/30 06:46:20;;;;;;;8.43;4.13;;;;;;;;;;5052745;28;20192;-75
2023/03/30 06:48:45;;;;;;;8.23;4.27;;;;;;;;;;5067223;28;20221;-75
2023/03/30 06:51:12;;;;;;;9.67;3.87;;;;;;;;;;5050323;28;20172;-75
2023/03/30 06:53:37;;;;;;;9.07;3.90;;;;;;;;;;5064878;28;20176;-75
2023/03/30 06:56:03;;;;;;;9.97;4.60;;;;;;;;;;5049887;28;20173;-76
2023/03/30 06:58:28;;;;;;;6.27;3.33;;;;;;;;;;5053489;28;20425;-75
2023/03/30 07:00:54;;;;;;;8.67;4.17;;;;;;;;;;5079892;28;20179;-76
2023/03/30 07:03:19;;;;;;;5.77;2.93;;;;;;;;;;5055005;28;20181;-76
2023/03/30 07:05:48;;;;;;;7.53;3.90;;;;;;;;;;5055236;28;20187;-76
2023/03/30 07:08:13;;;;;;;6.77;4.07;;;;;;;;;;5049649;28;20190;-76
2023/03/30 07:10:39;;;;;;;5.03;3.07;;;;;;;;;;5049802;28;20279;-76
2023/03/30 07:13:05;;;;;;;4.10;3.00;;;;;;;;;;5054238;28;20197;-76
2023/03/30 07:15:30;;;;;;;7.87;4.53;;;;;;;;;;5048229;28;20170;-76
2023/03/30 07:17:55;;;;;;;4.63;3.33;;;;;;;;;;5053147;28;20180;-76
2023/03/30 07:20:20;;;;;;;4.87;3.00;;;;;;;;;;5054016;28;20218;-76
2023/03/30 07:22:46;;;;;;;4.57;2.40;;;;;;;;;;5052771;28;20178;-76
2023/03/30 07:25:12;;;;;;;5.40;2.83;;;;;;;;;;5056393;28;20201;-75
2023/03/30 07:27:37;;;;;;;8.00;3.30;;;;;;;;;;5052107;28;20194;-76
2023/03/30 07:30:06;;;;;;;6.43;2.90;;;;;;;;;;5052919;28;20210;-77
2023/03/30 07:32:31;;;;;;;4.43;2.60;;;;;;;;;;5041389;28;20185;-76
2023/03/30 07:34:57;;;;;;;5.33;4.00;;;;;;;;;;5064042;28;20170;-76
2023/03/30 07:37:22;;;;;;;3.70;2.20;;;;;;;;;;5050318;28;20182;-76
2023/03/30 07:39:47;;;;;;;3.93;3.50;;;;;;;;;;5067771;28;20258;-75
2023/03/30 07:42:13;;;;;;;8.00;3.73;;;;;;;;;;5044742;28;20198;-75
2023/03/30 07:44:38;;;;;;;2.93;2.07;;;;;;;;;;5062280;28;20239;-75
2023/03/30 07:47:05;;;;;;;2.00;1.73;;;;;;;;;;5046182;28;20199;-75
2023/03/30 07:49:30;;;;;;;2.40;2.20;;;;;;;;;;5050369;28;20240;-75
2023/03/30 07:51:56;;;;;;;2.40;2.13;;;;;;;;;;5051167;28;20198;-75
2023/03/30 07:54:21;;;;;;;2.30;2.03;;;;;;;;;;5057017;28;20199;-76
2023/03/30 07:56:51;;;;;;;5.13;2.50;;;;;;;;;;5052254;28;20277;-76
2023/03/30 07:59:18;;;;;;;2.73;2.13;;;;;;;;;;5079464;28;20171;-75
2023/03/30 08:01:43;;;;;;;2.73;2.37;;;;;;;;;;5052309;28;20223;-76
2023/03/30 08:04:09;;;;;;;2.37;2.03;;;;;;;;;;5073688;28;20181;-75
2023/03/30 08:06:34;;;;;;;3.13;2.03;;;;;;;;;;5058299;28;20170;-76
2023/03/30 08:09:00;;;;;;;3.27;2.97;;;;;;;;;;5049975;28;20266;-76
2023/03/30 08:11:25;;;;;;;5.07;3.00;;;;;;;;;;5045334;28;20173;-76
2023/03/30 08:13:50;;;;;;;5.23;4.73;;;;;;;;;;5049403;28;20177;-76
2023/03/30 08:16:15;;;;;;;5.17;3.33;;;;;;;;;;5035809;28;20186;-76
2023/03/30 08:18:41;;;;;;;3.17;2.00;;;;;;;;;;5044529;28;20202;-76
2023/03/30 08:21:06;;;;;;;3.57;2.67;;;;;;;;;;5059041;28;20186;-76
2023/03/30 08:23:31;;;;;;;3.00;2.67;;;;;;;;;;5048491;28;20174;-76
2023/03/30 08:25:57;;;;;;;4.43;3.10;;;;;;;;;;5052568;28;20185;-76
2023/03/30 08:28:25;;;;;;;3.73;2.87;;;;;;;;;;5078592;28;20184;-76
2023/03/30 08:30:51;;;;;;;4.30;2.90;;;;;;;;;;5062462;28;20173;-76
2023/03/30 08:33:17;;;;;;;3.50;3.20;;;;;;;;;;5046269;28;20184;-76
2023/03/30 08:35:43;;;;;;;6.03;4.27;;;;;;;;;;5051260;28;20170;-76
2023/03/30 08:38:08;;;;;;;7.17;4.27;;;;;;;;;;5062487;28;20177;-76
2023/03/30 08:40:37;;;;;;;3.50;2.57;;;;;;;;;;5043053;28;20188;-75
2023/03/30 08:43:02;;;;;;;3.23;2.00;;;;;;;;;;5050435;28;20198;-75
2023/03/30 08:45:33;;;;;;;5.60;2.60;;;;;;;;;;5050242;28;20166;-75
2023/03/30 08:47:59;;;;;;;5.63;3.43;;;;;;;;;;5065280;28;20217;-76
2023/03/30 08:50:30;;;;;;;5.87;2.47;;;;;;;;;;5078176;28;20329;-75
2023/03/30 08:52:56;;;;;;;7.97;2.40;;;;;;;;;;5061302;28;20315;-75
2023/03/30 08:55:23;;;;;;;2.63;2.40;;;;;;;;;;5043362;28;20261;-75
2023/03/30 08:57:58;;;;;;;2.10;1.90;;;;;;;;;;5039819;28;20224;-76
2023/03/30 09:00:29;;;;;;;1.93;1.73;;;;;;;;;;5050058;28;20177;-75
2023/03/30 09:03:02;;;;;;;3.13;2.20;;;;;;;;;;5042343;28;20209;-76
2023/03/30 09:05:30;;;;;;;3.90;2.07;;;;;;;;;;5050882;28;20316;-75
2023/03/30 09:07:59;;;;;;;2.20;2.00;;;;;;;;;;5057300;28;20178;-76
2023/03/30 09:10:26;;;;;;;2.33;2.00;;;;;;;;;;5072041;28;20288;-76
2023/03/30 09:12:52;;;;;;;2.17;1.97;;;;;;;;;;5048150;28;20174;-75
2023/03/30 09:15:19;;;;;;;2.73;2.40;;;;;;;;;;5046391;28;20273;-76
2023/03/30 09:17:47;;;;;;;6.77;2.73;;;;;;;;;;5058701;28;20166;-75
2023/03/30 09:20:17;;;;;;;3.63;2.20;;;;;;;;;;5075801;28;20260;-75
2023/03/30 09:22:43;;;;;;;4.10;2.73;;;;;;;;;;5044786;28;20232;-76
2023/03/30 09:25:27;;;;;;;2.67;2.30;;;;;;;;;;5078033;28;20178;-75
2023/03/30 09:28:25;;;;;;;2.97;2.17;;;;;;;;;;5040950;28;20172;-75
2023/03/30 09:30:52;;;;;;;3.00;2.60;;;;;;;;;;5031581;28;20208;-75
2023/03/30 09:33:36;;;;;;;3.50;2.70;;;;;;;;;;5046484;28;20190;-75
2023/03/30 09:36:12;;;;;;;5.37;2.93;;;;;;;;;;5067930;28;20214;-75
2023/03/30 09:38:40;;;;;;;4.43;3.23;;;;;;;;;;5065882;28;20210;-75
2023/03/30 09:41:26;;;;;;;5.33;3.50;;;;;;;;;;5049126;28;20250;-75
2023/03/30 09:43:52;;;;;;;4.57;2.83;;;;;;;;;;5017337;28;20246;-75
2023/03/30 09:46:17;;;;;;;2.97;2.50;;;;;;;;;;5043529;28;20222;-75
2023/03/30 09:48:43;;;;;;;3.50;2.73;;;;;;;;;;5045207;28;20227;-76
2023/03/30 09:51:15;;;;;;;2.60;2.40;;;;;;;;;;5049111;28;20177;-75
2023/03/30 09:53:41;;;;;;;3.27;2.60;;;;;;;;;;5078962;28;20270;-76
2023/03/30 09:56:15;;;;;;;5.57;4.63;;;;;;;;;;5066752;28;20174;-76
2023/03/30 09:58:41;;;;;;;4.53;2.60;;;;;;;;;;5071737;28;20177;-76
2023/03/30 10:01:15;;;;;;;4.57;3.20;;;;;;;;;;5064394;28;20171;-75
2023/03/30 10:03:42;;;;;;;4.97;3.73;;;;;;;;;;5069237;28;20177;-76
2023/03/30 10:06:08;;;;;;;3.70;2.43;;;;;;;;;;5049975;28;20182;-76
2023/03/30 10:08:49;;;;;;;6.47;3.60;;;;;;;;;;5066489;28;20183;-76
2023/03/30 10:11:18;;;;;;;4.10;2.97;;;;;;;;;;5068268;28;20172;-76
2023/03/30 10:13:44;;;;;;;3.70;2.70;;;;;;;;;;5051902;28;20197;-75
2023/03/30 10:16:18;;;;;;;6.53;2.93;;;;;;;;;;5043102;28;20208;-76
2023/03/30 10:18:44;;;;;;;3.43;2.90;;;;;;;;;;5060982;28;20170;-75
2023/03/30 10:21:12;;;;;;;3.43;2.90;;;;;;;;;;5051175;28;20243;-76
2023/03/30 10:23:38;;;;;;;4.67;2.83;;;;;;;;;;5041844;28;20198;-75
2023/03/30 10:26:06;;;;;;;6.97;3.10;;;;;;;;;;5046377;28;20182;-75
2023/03/30 10:28:33;;;;;;;6.13;3.53;;;;;;;;;;5048965;28;20180;-76
2023/03/30 10:30:59;;;;;;;7.70;3.73;;;;;;;;;;5047194;28;20226;-76
2023/03/30 10:33:26;;;;;;;2.67;2.47;;;;;;;;;;5045791;28;20262;-76
2023/03/30 10:35:52;;;;;;;5.43;3.40;;;;;;;;;;5046754;28;20168;-76
2023/03/30 10:38:18;;;;;;;5.40;3.40;;;;;;;;;;5061005;28;20175;-76
2023/03/30 10:40:43;;;;;;;4.43;3.17;;;;;;;;;;5047745;28;20178;-75
2023/03/30 10:43:21;;;;;;;3.87;2.90;;;;;;;;;;5068375;28;20206;-76
2023/03/30 10:45:48;;;;;;;4.50;3.00;;;;;;;;;;5079100;28;20267;-76
2023/03/30 10:48:28;;;;;;;5.90;2.80;;;;;;;;;;5040271;28;20218;-75
2023/03/30 10:51:06;;;;;;;6.90;3.20;;;;;;;;;;5043754;28;20216;-76
2023/03/30 10:53:37;;;;;;;5.00;2.77;;;;;;;;;;5049516;28;20201;-76
2023/03/30 10:56:19;;;;;;;3.93;2.73;;;;;;;;;;5041769;28;20242;-76
2023/03/30 10:58:56;;;;;;;3.50;2.27;;;;;;;;;;5046458;28;20217;-75
2023/03/30 11:01:24;;;;;;;3.53;2.80;;;;;;;;;;5039317;28;20216;-76
2023/03/30 11:03:56;;;;;;;3.03;2.33;;;;;;;;;;5041463;28;20165;-76
2023/03/30 11:06:25;;;;;;;4.10;2.60;;;;;;;;;;5055853;28;20189;-76
2023/03/30 11:08:51;;;;;;;3.27;2.80;;;;;;;;;;5065449;28;20198;-76
2023/03/30 11:11:33;;;;;;;3.03;2.57;;;;;;;;;;5058180;28;20239;-76
2023/03/30 11:14:03;;;;;;;3.53;2.70;;;;;;;;;;5065128;28;20178;-76
2023/03/30 11:16:34;;;;;;;7.40;3.20;;;;;;;;;;5070665;28;20221;-76
2023/03/30 11:19:11;;;;;;;5.93;3.23;;;;;;;;;;5044245;28;20176;-76
2023/03/30 11:21:39;;;;;;;3.63;3.00;;;;;;;;;;5049290;28;20174;-76
2023/03/30 11:24:19;;;;;;;3.63;2.37;;;;;;;;;;5050389;28;20198;-76
2023/03/30 11:26:44;;;;;;;3.20;2.60;;;;;;;;;;5073965;28;20180;-76
2023/03/30 11:29:16;;;;;;;5.53;3.10;;;;;;;;;;5045698;28;20285;-76
2023/03/30 11:32:10;;;;;;;4.37;2.90;;;;;;;;;;5048419;28;20176;-76
2023/03/30 11:34:47;;;;;;;4.27;2.80;;;;;;;;;;5079506;28;20171;-76
2023/03/30 11:37:28;;;;;;;4.13;3.30;;;;;;;;;;5050685;28;20179;-76
2023/03/30 11:39:58;;;;;;;5.77;4.03;;;;;;;;;;5062605;28;20241;-76
2023/03/30 11:42:25;;;;;;;6.70;3.40;;;;;;;;;;5049368;28;20202;-76
2023/03/30 11:44:51;;;;;;;6.03;4.00;;;;;;;;;;5065561;28;20178;-76
2023/03/30 11:47:40;;;;;;;5.57;3.30;;;;;;;;;;5044259;28;20207;-76
2023/03/30 11:50:12;;;;;;;5.60;3.10;;;;;;;;;;5051286;28;20230;-75
2023/03/30 11:52:47;;;;;;;5.17;3.40;;;;;;;;;;5055223;28;20191;-76
2023/03/30 11:55:19;;;;;;;8.10;3.23;;;;;;;;;;5042480;28;20181;-75
2023/03/30 11:57:47;;;;;;;9.57;3.30;;;;;;;;;;5049823;28;20166;-75
2023/03/30 12:00:21;;;;;;;4.17;2.63;;;;;;;;;;5046109;28;20179;-75
2023/03/30 12:02:51;;;;;;;5.57;3.20;;;;;;;;;;5048197;28;20236;-75
2023/03/30 12:05:20;;;;;;;3.90;2.93;;;;;;;;;;5083212;28;20206;-76
2023/03/30 12:08:01;;;;;;;6.93;2.80;;;;;;;;;;5065172;28;20214;-75
2023/03/30 12:10:33;;;;;;;6.13;3.40;;;;;;;;;;5048697;28;20208;-74
2023/03/30 12:12:59;;;;;;;7.87;3.27;;;;;;;;;;5037638;28;20193;-75
2023/03/30 12:15:40;;;;;;;3.33;2.33;;;;;;;;;;5047588;28;20256;-75
2023/03/30 12:18:24;;;;;;;3.50;2.40;;;;;;;;;;5082262;28;20199;-75
2023/03/30 12:20:55;;;;;;;5.77;3.00;;;;;;;;;;5077773;28;20179;-76
2023/03/30 12:23:36;;;;;;;5.37;3.10;;;;;;;;;;5045898;28;20259;-76
2023/03/30 12:26:06;;;;;;;3.93;2.90;;;;;;;;;;5049807;28;20185;-76
2023/03/30 12:28:39;;;;;;;3.13;2.23;;;;;;;;;;5063924;28;20186;-76
2023/03/30 12:31:05;;;;;;;5.20;2.70;;;;;;;;;;5072990;28;20187;-75
2023/03/30 12:33:34;;;;;;;2.50;2.30;;;;;;;;;;5042169;28;20169;-76
2023/03/30 12:36:00;;;;;;;5.57;2.60;;;;;;;;;;5044057;28;20175;-76
2023/03/30 12:38:36;;;;;;;4.90;2.93;;;;;;;;;;5050289;28;20239;-76
2023/03/30 12:41:17;;;;;;;3.57;2.13;;;;;;;;;;5060235;28;20173;-76
2023/03/30 12:44:01;;;;;;;4.27;2.73;;;;;;;;;;5048038;28;20203;-76
2023/03/30 12:46:34;;;;;;;4.73;2.43;;;;;;;;;;5045021;28;20234;-76
2023/03/30 12:49:03;;;;;;;5.03;3.40;;;;;;;;;;5041664;28;20286;-76
2023/03/30 12:51:44;;;;;;;4.57;2.77;;;;;;;;;;5046980;28;20216;-76
2023/03/30 12:54:27;;;;;;;3.40;2.87;;;;;;;;;;5056916;28;20173;-76
2023/03/30 12:57:12;;;;;;;3.80;2.70;;;;;;;;;;5039452;28;20315;-76
2023/03/30 12:59:55;;;;;;;2.93;2.70;;;;;;;;;;5041117;28;20177;-76
2023/03/30 13:02:34;;;;;;;5.60;2.43;;;;;;;;;;5080876;28;20173;-76
2023/03/30 13:04:59;;;;;;;5.30;2.50;;;;;;;;;;5046384;28;20184;-76
2023/03/30 13:07:30;;;;;;;3.97;2.43;;;;;;;;;;5043453;28;20192;-76
2023/03/30 13:09:58;;;;;;;3.17;2.37;;;;;;;;;;5043312;28;20207;-76
2023/03/30 13:12:26;;;;;;;5.77;3.00;;;;;;;;;;5045865;28;20275;-76
2023/03/30 13:15:03;;;;;;;6.63;3.37;;;;;;;;;;5070574;28;20197;-76
2023/03/30 13:17:46;;;;;;;3.67;2.40;;;;;;;;;;5045388;28;20177;-76
2023/03/30 13:20:13;;;;;;;3.47;2.30;;;;;;;;;;5037958;28;20238;-76
2023/03/30 13:22:39;;;;;;;4.57;2.70;;;;;;;;;;5046929;28;20188;-76
2023/03/30 13:25:19;;;;;;;5.43;2.53;;;;;;;;;;5066351;28;20186;-76
2023/03/30 13:27:47;;;;;;;3.20;2.53;;;;;;;;;;5042931;28;20180;-76
2023/03/30 13:30:13;;;;;;;3.10;2.63;;;;;;;;;;5046088;28;20305;-76
2023/03/30 13:32:38;;;;;;;4.33;2.57;;;;;;;;;;5076800;28;20297;-76
2023/03/30 13:35:06;;;;;;;4.50;3.37;;;;;;;;;;5045582;28;20180;-76
2023/03/30 13:37:39;;;;;;;4.63;3.33;;;;;;;;;;5040189;28;20182;-76
2023/03/30 13:40:19;;;;;;;5.03;2.83;;;;;;;;;;5068790;28;20206;-76
2023/03/30 13:43:00;;;;;;;6.20;3.07;;;;;;;;;;5074669;28;20199;-76
2023/03/30 13:45:40;;;;;;;6.50;4.50;;;;;;;;;;5045198;28;20185;-76
2023/03/30 13:48:08;;;;;;;5.60;2.43;;;;;;;;;;5050629;28;20214;-76
2023/03/30 13:50:34;;;;;;;5.83;3.93;;;;;;;;;;5046163;28;20378;-76
2023/03/30 13:53:01;;;;;;;5.13;4.10;;;;;;;;;;5050460;28;20234;-76
2023/03/30 13:55:29;;;;;;;6.90;4.57;;;;;;;;;;5040725;28;20209;-76
2023/03/30 13:57:58;;;;;;;6.57;4.63;;;;;;;;;;5049533;28;20179;-76
2023/03/30 14:00:23;;;;;;;5.43;3.40;;;;;;;;;;5036845;28;20179;-76
2023/03/30 14:02:49;;;;;;;3.40;2.47;;;;;;;;;;5069993;28;20213;-75
2023/03/30 14:05:22;;;;;;;3.97;2.80;;;;;;;;;;5042603;28;20175;-76
2023/03/30 14:07:47;;;;;;;4.00;2.27;;;;;;;;;;5069818;28;20174;-76
2023/03/30 14:10:13;;;;;;;3.37;2.10;;;;;;;;;;5038804;28;20290;-76
2023/03/30 14:12:38;;;;;;;4.30;2.37;;;;;;;;;;5037556;28;20231;-76
2023/03/30 14:15:14;;;;;;;3.03;2.00;;;;;;;;;;5045341;28;20171;-76
2023/03/30 14:17:40;;;;;;;4.87;2.53;;;;;;;;;;5073858;28;20206;-76
2023/03/30 14:20:25;;;;;;;3.47;2.23;;;;;;;;;;5045359;28;20182;-77
2023/03/30 14:22:52;;;;;;;4.87;2.70;;;;;;;;;;5060584;28;20202;-76
2023/03/30 14:25:24;;;;;;;3.03;2.50;;;;;;;;;;5043483;28;20188;-76
2023/03/30 14:27:49;;;;;;;1.87;1.73;;;;;;;;;;5043768;28;20231;-76
2023/03/30 14:30:22;;;;;;;5.40;2.37;;;;;;;;;;5074611;28;20324;-76
2023/03/30 14:33:03;;;;;;;4.27;2.13;;;;;;;;;;5045711;28;20180;-76
2023/03/30 14:35:28;;;;;;;4.93;2.10;;;;;;;;;;5050720;28;20193;-76
2023/03/30 14:37:54;;;;;;;4.63;2.30;;;;;;;;;;5046876;28;20209;-76
2023/03/30 14:40:21;;;;;;;4.20;2.10;;;;;;;;;;5067975;28;20189;-77
2023/03/30 14:42:46;;;;;;;3.90;2.07;;;;;;;;;;5049210;28;20209;-76
2023/03/30 14:45:16;;;;;;;2.90;2.13;;;;;;;;;;5046415;28;20186;-76
2023/03/30 14:47:41;;;;;;;3.20;2.03;;;;;;;;;;5045431;28;20226;-76
2023/03/30 14:50:07;;;;;;;2.90;2.00;;;;;;;;;;5045268;28;20210;-76